Time;durP1;ratioP1;P1;durP2;ratioP2;P2;SDS_P1;SDS_P2;PMS_P1;PMS_P2;Temp;Humidity;BMP_temperature;BMP_pressure;BME280_temperature;BME280_humidity;BME280_pressure;Samples;Min_cycle;Max_cycle;Signal;HPM_P1;HPM_P2
2022/08/01 00:00:38;;;;;;;2.85;1.40;;;25.40;52.40;;;;;;937614;149;27318;-80
2022/08/01 00:03:05;;;;;;;2.70;1.30;;;25.40;52.50;;;;;;952865;146;27287;-80
2022/08/01 00:05:31;;;;;;;1.87;1.57;;;25.30;52.60;;;;;;956653;145;27360;-79
2022/08/01 00:07:58;;;;;;;3.80;1.45;;;25.20;52.60;;;;;;955329;146;27359;-79
2022/08/01 00:10:24;;;;;;;1.37;1.17;;;25.10;52.70;;;;;;954156;145;27313;-80
2022/08/01 00:12:51;;;;;;;1.25;1.15;;;25.10;53.00;;;;;;954298;145;27404;-79
2022/08/01 00:15:18;;;;;;;1.20;1.17;;;25.00;53.20;;;;;;953416;146;27325;-79
2022/08/01 00:17:44;;;;;;;2.12;1.25;;;24.90;53.30;;;;;;954841;146;27981;-80
2022/08/01 00:20:11;;;;;;;3.05;1.20;;;24.90;53.40;;;;;;955106;146;27344;-80
2022/08/01 00:22:37;;;;;;;0.85;0.85;;;24.80;53.60;;;;;;939232;149;27928;-80
2022/08/01 00:25:04;;;;;;;1.10;1.10;;;24.70;53.70;;;;;;954559;146;27300;-80
2022/08/01 00:27:31;;;;;;;1.20;1.20;;;24.70;54.00;;;;;;954939;145;27273;-80
2022/08/01 00:29:57;;;;;;;1.65;1.55;;;24.60;54.00;;;;;;955199;145;27343;-80
2022/08/01 00:32:24;;;;;;;2.75;1.20;;;24.60;54.20;;;;;;936978;149;27373;-80
2022/08/01 00:34:50;;;;;;;1.30;1.20;;;24.50;54.20;;;;;;954215;145;27484;-80
2022/08/01 00:37:17;;;;;;;1.60;1.50;;;24.50;54.30;;;;;;952089;146;27386;-78
2022/08/01 00:39:43;;;;;;;1.60;1.50;;;24.40;54.50;;;;;;954370;145;27433;-79
2022/08/01 00:42:10;;;;;;;1.22;1.20;;;24.40;54.80;;;;;;955709;145;27328;-78
2022/08/01 00:44:37;;;;;;;2.15;1.30;;;24.30;54.70;;;;;;937767;149;27794;-78
2022/08/01 00:47:03;;;;;;;1.37;1.27;;;24.30;55.20;;;;;;942830;147;27963;-78
2022/08/01 00:49:30;;;;;;;1.50;1.40;;;24.20;55.10;;;;;;953756;145;27391;-78
2022/08/01 00:51:58;;;;;;;2.12;1.70;;;24.10;55.30;;;;;;954311;145;27406;-78
2022/08/01 00:54:23;;;;;;;1.57;1.47;;;24.10;55.50;;;;;;955613;145;27333;-78
2022/08/01 00:56:50;;;;;;;1.20;1.20;;;24.10;55.60;;;;;;952179;145;27440;-78
2022/08/01 00:59:16;;;;;;;1.60;1.50;;;24.00;55.70;;;;;;954592;145;27343;-78
2022/08/01 01:01:43;;;;;;;1.47;1.37;;;24.00;56.00;;;;;;948262;148;27296;-78
2022/08/01 01:04:09;;;;;;;1.70;1.60;;;23.90;56.10;;;;;;953929;145;27265;-78
2022/08/01 01:06:45;;;;;;;1.65;1.55;;;23.80;56.20;;;;;;936594;148;27324;-78
2022/08/01 01:09:20;;;;;;;1.50;1.40;;;23.80;56.40;;;;;;932804;149;27376;-78
2022/08/01 01:12:08;;;;;;;2.90;1.52;;;23.70;56.50;;;;;;954296;145;27397;-78
2022/08/01 01:14:56;;;;;;;1.20;1.10;;;23.70;56.60;;;;;;941188;145;27499;-79
2022/08/01 01:17:22;;;;;;;1.42;1.32;;;23.60;56.70;;;;;;954440;146;27380;-77
2022/08/01 01:19:49;;;;;;;1.62;1.52;;;23.60;56.70;;;;;;953043;145;27336;-78
2022/08/01 01:22:28;;;;;;;1.67;1.50;;;23.60;57.20;;;;;;951680;146;27422;-78
2022/08/01 01:25:03;;;;;;;1.82;1.70;;;23.50;57.00;;;;;;934786;148;27371;-78
2022/08/01 01:27:32;;;;;;;1.50;1.40;;;23.50;57.10;;;;;;954103;145;27479;-78
2022/08/01 01:29:59;;;;;;;1.32;1.32;;;23.40;57.20;;;;;;952700;145;27336;-78
2022/08/01 01:32:34;;;;;;;1.42;1.42;;;23.40;57.20;;;;;;955036;145;27411;-78
2022/08/01 01:35:00;;;;;;;1.62;1.40;;;23.40;57.40;;;;;;954226;145;27448;-78
2022/08/01 01:37:27;;;;;;;1.60;1.50;;;23.30;57.60;;;;;;954617;145;27330;-78
2022/08/01 01:39:53;;;;;;;1.85;1.72;;;23.20;57.60;;;;;;957162;145;27297;-79
2022/08/01 01:42:20;;;;;;;1.60;1.50;;;23.10;57.80;;;;;;954211;146;27388;-78
2022/08/01 01:44:47;;;;;;;4.35;2.47;;;23.10;58.20;;;;;;941821;148;27582;-78
2022/08/01 01:47:13;;;;;;;1.57;1.47;;;23.00;58.30;;;;;;954559;145;27364;-78
2022/08/01 01:49:40;;;;;;;1.77;1.67;;;23.00;58.50;;;;;;954589;146;27332;-78
2022/08/01 01:52:06;;;;;;;1.62;1.52;;;22.90;58.70;;;;;;956012;145;27405;-78
2022/08/01 01:54:33;;;;;;;2.52;1.20;;;22.80;58.90;;;;;;936923;149;27353;-78
2022/08/01 01:57:00;;;;;;;1.60;1.50;;;22.80;59.00;;;;;;951999;145;27305;-78
2022/08/01 01:59:26;;;;;;;1.40;1.30;;;22.80;59.30;;;;;;954724;145;27341;-79
2022/08/01 02:01:53;;;;;;;1.70;1.60;;;22.80;59.40;;;;;;954203;145;27800;-79
2022/08/01 02:04:19;;;;;;;1.50;1.40;;;22.70;59.50;;;;;;934769;149;27312;-78
2022/08/01 02:06:46;;;;;;;1.40;1.30;;;22.80;59.70;;;;;;946176;147;27308;-79
2022/08/01 02:09:12;;;;;;;1.50;1.40;;;22.70;59.80;;;;;;955676;145;27632;-78
2022/08/01 02:11:39;;;;;;;1.37;1.27;;;22.70;59.90;;;;;;952632;145;27356;-78
2022/08/01 02:14:08;;;;;;;1.70;1.52;;;22.80;59.60;;;;;;935693;149;27365;-79
2022/08/01 02:16:32;;;;;;;1.45;1.35;;;22.80;60.10;;;;;;935333;149;27342;-78
2022/08/01 02:18:59;;;;;;;1.50;1.40;;;22.80;60.20;;;;;;952977;146;27291;-78
2022/08/01 02:21:34;;;;;;;1.62;1.52;;;22.80;60.30;;;;;;953491;145;27261;-78
2022/08/01 02:24:03;;;;;;;1.52;1.42;;;22.80;60.30;;;;;;954963;145;27370;-78
2022/08/01 02:26:30;;;;;;;1.82;1.47;;;22.80;60.40;;;;;;941085;148;27389;-78
2022/08/01 02:28:57;;;;;;;1.80;1.42;;;22.80;60.50;;;;;;957716;146;27307;-78
2022/08/01 02:31:23;;;;;;;1.35;1.20;;;22.80;60.60;;;;;;945345;146;27451;-78
2022/08/01 02:33:52;;;;;;;1.52;1.42;;;22.80;60.70;;;;;;919434;150;27320;-79
2022/08/01 02:36:19;;;;;;;1.67;1.57;;;22.80;60.80;;;;;;941621;147;27370;-79
2022/08/01 02:38:46;;;;;;;1.45;1.35;;;22.80;60.80;;;;;;941301;147;27234;-79
2022/08/01 02:41:12;;;;;;;1.60;1.50;;;22.80;61.10;;;;;;926184;150;27305;-78
2022/08/01 02:43:39;;;;;;;1.80;1.70;;;22.80;61.30;;;;;;934347;148;27424;-78
2022/08/01 02:46:05;;;;;;;1.35;1.25;;;22.80;61.30;;;;;;942231;147;27326;-78
2022/08/01 02:48:32;;;;;;;2.08;1.22;;;22.80;61.60;;;;;;922474;150;27384;-78
2022/08/01 02:50:59;;;;;;;2.17;1.67;;;22.80;61.60;;;;;;942846;147;28760;-78
2022/08/01 02:53:25;;;;;;;2.50;1.50;;;22.80;61.70;;;;;;935694;149;27338;-79
2022/08/01 02:55:52;;;;;;;1.40;1.30;;;22.90;61.80;;;;;;941418;147;27426;-77
2022/08/01 02:58:18;;;;;;;1.50;1.40;;;22.90;61.90;;;;;;942967;147;27284;-78
2022/08/01 03:00:45;;;;;;;1.40;1.30;;;22.90;62.10;;;;;;943203;147;27378;-78
2022/08/01 03:03:12;;;;;;;1.65;1.55;;;22.90;62.00;;;;;;942036;147;27389;-78
2022/08/01 03:05:39;;;;;;;1.52;1.40;;;23.00;62.10;;;;;;917384;150;27351;-78
2022/08/01 03:08:05;;;;;;;1.25;1.15;;;23.00;62.10;;;;;;932961;149;27369;-78
2022/08/01 03:10:32;;;;;;;1.12;1.12;;;23.00;62.10;;;;;;939469;146;27315;-78
2022/08/01 03:12:58;;;;;;;1.10;1.10;;;23.00;62.20;;;;;;943671;147;27434;-78
2022/08/01 03:15:25;;;;;;;1.20;1.10;;;23.00;62.40;;;;;;941359;147;27425;-78
2022/08/01 03:17:51;;;;;;;0.98;0.98;;;23.10;62.40;;;;;;924133;149;27927;-78
2022/08/01 03:20:18;;;;;;;1.10;1.10;;;23.10;62.40;;;;;;941983;147;27406;-78
2022/08/01 03:22:44;;;;;;;1.98;1.32;;;23.10;62.50;;;;;;941433;147;27295;-78
2022/08/01 03:25:11;;;;;;;1.60;1.50;;;23.10;62.70;;;;;;940588;147;27438;-78
2022/08/01 03:27:38;;;;;;;1.50;1.40;;;23.20;62.70;;;;;;941777;147;27286;-78
2022/08/01 03:30:04;;;;;;;1.20;1.05;;;23.20;62.70;;;;;;925633;150;27481;-78
2022/08/01 03:32:31;;;;;;;1.37;1.27;;;23.20;62.70;;;;;;940896;146;27841;-78
2022/08/01 03:34:57;;;;;;;1.40;1.30;;;23.30;62.70;;;;;;941018;146;27259;-78
2022/08/01 03:37:27;;;;;;;1.02;1.02;;;23.30;62.50;;;;;;940285;146;27301;-78
2022/08/01 03:40:09;;;;;;;2.85;1.25;;;23.40;62.50;;;;;;940760;146;27477;-78
2022/08/01 03:42:38;;;;;;;1.95;1.05;;;23.40;62.50;;;;;;926932;149;27358;-78
2022/08/01 03:45:05;;;;;;;2.02;1.32;;;23.40;62.40;;;;;;924278;149;27458;-78
2022/08/01 03:47:31;;;;;;;1.25;1.20;;;23.50;62.60;;;;;;938866;146;27461;-78
2022/08/01 03:49:58;;;;;;;1.05;1.05;;;23.50;62.50;;;;;;941299;146;28228;-78
2022/08/01 03:52:25;;;;;;;1.00;1.00;;;23.50;62.50;;;;;;939560;146;27305;-78
2022/08/01 03:54:51;;;;;;;1.05;1.00;;;23.60;62.40;;;;;;923604;149;27442;-78
2022/08/01 03:57:18;;;;;;;1.55;1.40;;;23.60;62.30;;;;;;941274;146;27353;-78
2022/08/01 03:59:44;;;;;;;1.40;1.30;;;23.70;62.40;;;;;;941399;146;27874;-79
2022/08/01 04:02:11;;;;;;;1.70;1.32;;;23.70;62.40;;;;;;939341;147;27433;-79
2022/08/01 04:04:37;;;;;;;1.42;1.32;;;23.80;62.30;;;;;;941429;146;27295;-76
2022/08/01 04:07:06;;;;;;;1.70;1.50;;;23.80;62.30;;;;;;922836;149;27285;-77
2022/08/01 04:09:31;;;;;;;1.30;1.20;;;23.80;62.30;;;;;;923990;149;27468;-76
2022/08/01 04:11:57;;;;;;;1.40;1.30;;;23.80;62.30;;;;;;942686;146;27926;-78
2022/08/01 04:14:24;;;;;;;2.98;1.32;;;23.90;62.40;;;;;;946032;146;27321;-79
2022/08/01 04:16:50;;;;;;;1.60;1.50;;;23.90;62.40;;;;;;941938;148;27335;-79
2022/08/01 04:19:17;;;;;;;2.65;1.80;;;23.90;62.50;;;;;;941688;146;27364;-78
2022/08/01 04:21:44;;;;;;;1.50;1.40;;;24.00;62.50;;;;;;944726;146;27359;-79
2022/08/01 04:24:13;;;;;;;3.00;1.72;;;24.00;62.50;;;;;;933244;149;27281;-79
2022/08/01 04:26:40;;;;;;;1.80;1.70;;;24.00;62.50;;;;;;941097;146;27277;-79
2022/08/01 04:29:06;;;;;;;2.20;2.00;;;24.00;62.50;;;;;;940992;146;27297;-79
2022/08/01 04:31:33;;;;;;;2.95;2.08;;;24.00;62.60;;;;;;927250;148;27373;-79
2022/08/01 04:33:59;;;;;;;1.80;1.70;;;24.00;62.60;;;;;;961248;145;27341;-79
2022/08/01 04:36:26;;;;;;;1.67;1.57;;;24.10;62.70;;;;;;959856;145;27412;-79
2022/08/01 04:38:53;;;;;;;1.50;1.20;;;24.10;62.60;;;;;;942463;148;27419;-79
2022/08/01 04:41:19;;;;;;;3.33;1.60;;;24.10;62.50;;;;;;958794;145;27295;-80
2022/08/01 04:43:47;;;;;;;3.20;1.80;;;24.10;62.50;;;;;;942249;148;27292;-80
2022/08/01 04:46:15;;;;;;;2.70;1.98;;;24.20;62.60;;;;;;959275;145;27405;-80
2022/08/01 04:48:41;;;;;;;1.72;1.62;;;24.20;62.70;;;;;;959457;145;27301;-80
2022/08/01 04:51:17;;;;;;;1.72;1.20;;;24.20;62.60;;;;;;962720;145;27256;-80
2022/08/01 04:53:43;;;;;;;0.88;0.88;;;24.30;62.70;;;;;;961565;145;27443;-80
2022/08/01 04:56:12;;;;;;;1.10;1.00;;;24.30;62.70;;;;;;961963;145;27399;-80
2022/08/01 04:58:36;;;;;;;1.42;1.15;;;24.30;62.70;;;;;;960948;145;27347;-80
2022/08/01 05:01:03;;;;;;;1.22;1.07;;;24.40;62.80;;;;;;960259;145;27260;-79
2022/08/01 05:03:31;;;;;;;1.30;1.20;;;24.50;62.90;;;;;;961457;145;27442;-79
2022/08/01 05:05:57;;;;;;;1.25;1.15;;;24.50;62.80;;;;;;958973;145;27304;-79
2022/08/01 05:08:27;;;;;;;0.88;0.88;;;24.70;63.10;;;;;;961011;145;27317;-79
2022/08/01 05:10:54;;;;;;;3.22;1.32;;;24.90;63.60;;;;;;941964;148;27886;-79
2022/08/01 05:13:20;;;;;;;0.93;0.93;;;25.20;64.20;;;;;;962363;147;27309;-79
2022/08/01 05:15:47;;;;;;;0.90;0.80;;;25.60;64.60;;;;;;961719;145;27431;-79
2022/08/01 05:18:13;;;;;;;1.67;1.00;;;26.00;64.30;;;;;;959608;145;28120;-79
2022/08/01 05:20:41;;;;;;;1.05;0.88;;;26.50;63.30;;;;;;960162;145;27297;-78
2022/08/01 05:23:07;;;;;;;0.78;0.78;;;27.00;62.10;;;;;;960730;145;27329;-78
2022/08/01 05:25:33;;;;;;;1.67;1.15;;;27.40;61.20;;;;;;962810;145;27232;-81
2022/08/01 05:28:00;;;;;;;0.90;0.90;;;27.80;60.20;;;;;;942222;148;27353;-75
2022/08/01 05:30:26;;;;;;;1.02;1.00;;;28.10;59.40;;;;;;957977;145;27435;-76
2022/08/01 05:32:53;;;;;;;1.15;1.05;;;28.30;58.80;;;;;;958010;145;27347;-74
2022/08/01 05:35:20;;;;;;;1.10;0.95;;;28.40;58.30;;;;;;953894;146;27771;-74
2022/08/01 05:37:46;;;;;;;1.05;0.95;;;28.60;57.90;;;;;;955695;145;27342;-74
2022/08/01 05:40:13;;;;;;;2.65;1.02;;;28.70;57.60;;;;;;954704;146;27292;-76
2022/08/01 05:42:39;;;;;;;1.20;1.12;;;28.70;57.10;;;;;;934409;149;27394;-75
2022/08/01 05:45:06;;;;;;;1.75;1.27;;;28.80;56.90;;;;;;953216;145;27301;-77
2022/08/01 05:47:32;;;;;;;1.60;1.50;;;28.80;56.60;;;;;;953546;145;27333;-77
2022/08/01 05:49:59;;;;;;;1.40;1.30;;;28.80;56.30;;;;;;936696;149;27311;-73
2022/08/01 05:52:26;;;;;;;1.15;1.05;;;28.80;56.20;;;;;;956578;146;27317;-74
2022/08/01 05:54:52;;;;;;;2.10;1.10;;;28.80;56.00;;;;;;935544;149;27423;-74
2022/08/01 05:57:19;;;;;;;2.65;1.05;;;28.70;55.90;;;;;;956409;145;27755;-74
2022/08/01 05:59:45;;;;;;;0.93;0.93;;;28.70;55.90;;;;;;947833;149;27307;-74
2022/08/01 06:02:12;;;;;;;2.20;1.00;;;28.70;56.00;;;;;;956022;145;27421;-74
2022/08/01 06:04:39;;;;;;;0.88;0.72;;;28.70;55.90;;;;;;952939;146;27710;-74
2022/08/01 06:07:05;;;;;;;1.22;1.12;;;28.70;55.90;;;;;;957484;145;27690;-74
2022/08/01 06:09:32;;;;;;;0.90;0.90;;;28.70;55.80;;;;;;953197;145;27375;-74
2022/08/01 06:11:58;;;;;;;0.82;0.82;;;28.60;55.60;;;;;;935355;149;27464;-74
2022/08/01 06:14:25;;;;;;;1.07;0.80;;;28.60;55.60;;;;;;936330;149;27359;-74
2022/08/01 06:16:52;;;;;;;1.47;1.02;;;28.60;55.80;;;;;;955763;145;27321;-74
2022/08/01 06:19:18;;;;;;;1.55;1.45;;;28.60;55.50;;;;;;957771;145;27329;-74
2022/08/01 06:21:45;;;;;;;1.30;1.20;;;28.50;55.60;;;;;;956014;145;27430;-74
2022/08/01 06:24:11;;;;;;;1.57;0.90;;;28.50;55.50;;;;;;955407;145;27337;-73
2022/08/01 06:26:38;;;;;;;2.02;0.95;;;28.40;55.50;;;;;;954460;145;27353;-74
2022/08/01 06:29:05;;;;;;;0.82;0.82;;;28.30;55.40;;;;;;956255;145;27258;-73
2022/08/01 06:31:31;;;;;;;1.10;1.00;;;28.30;55.50;;;;;;954410;146;27353;-73
2022/08/01 06:33:58;;;;;;;1.02;1.02;;;28.20;55.50;;;;;;954902;145;27383;-73
2022/08/01 06:36:25;;;;;;;1.47;0.93;;;28.10;55.50;;;;;;939510;148;27457;-72
2022/08/01 06:38:51;;;;;;;1.50;1.12;;;28.00;55.50;;;;;;955146;146;27417;-74
2022/08/01 06:41:17;;;;;;;1.22;1.12;;;27.90;55.60;;;;;;935931;149;27371;-74
2022/08/01 06:43:44;;;;;;;1.15;1.05;;;27.80;55.70;;;;;;957547;145;27872;-74
2022/08/01 06:46:11;;;;;;;1.00;1.00;;;27.70;55.80;;;;;;933949;149;27361;-74
2022/08/01 06:48:39;;;;;;;1.22;1.12;;;27.60;55.90;;;;;;938218;148;27470;-74
2022/08/01 06:51:15;;;;;;;1.17;1.17;;;27.50;56.00;;;;;;955739;146;27312;-74
2022/08/01 06:53:36;;;;;;;1.20;1.10;;;27.40;56.20;;;;;;955156;145;27349;-74
2022/08/01 06:56:03;;;;;;;1.30;1.20;;;27.30;56.40;;;;;;954766;146;27372;-74
2022/08/01 06:58:29;;;;;;;1.62;1.17;;;27.30;56.60;;;;;;954980;146;27363;-75
2022/08/01 07:00:56;;;;;;;1.47;1.37;;;27.20;56.80;;;;;;953601;146;27353;-80
2022/08/01 07:03:23;;;;;;;2.85;1.50;;;27.20;57.00;;;;;;956806;146;27312;-81
2022/08/01 07:05:49;;;;;;;2.30;1.30;;;27.20;57.10;;;;;;954551;146;27332;-81
2022/08/01 07:08:16;;;;;;;1.70;1.40;;;27.30;57.30;;;;;;953666;146;27379;-80
2022/08/01 07:10:43;;;;;;;1.47;1.37;;;27.40;57.30;;;;;;955961;146;27434;-81
2022/08/01 07:13:09;;;;;;;2.47;1.52;;;27.50;57.30;;;;;;955010;145;27461;-81
2022/08/01 07:15:36;;;;;;;1.50;1.30;;;27.70;57.30;;;;;;956344;145;27404;-80
2022/08/01 07:18:03;;;;;;;1.37;1.27;;;27.80;57.20;;;;;;937415;147;27350;-80
2022/08/01 07:20:29;;;;;;;1.55;1.10;;;27.90;56.90;;;;;;944498;147;27874;-80
2022/08/01 07:22:56;;;;;;;1.30;1.20;;;28.00;56.70;;;;;;953814;146;27407;-81
2022/08/01 07:25:22;;;;;;;2.55;1.40;;;28.00;56.60;;;;;;954137;145;27285;-80
2022/08/01 07:27:49;;;;;;;1.37;1.27;;;28.00;56.30;;;;;;954313;145;27327;-80
2022/08/01 07:30:15;;;;;;;1.40;1.30;;;28.00;56.10;;;;;;938373;148;27358;-80
2022/08/01 07:32:42;;;;;;;1.55;1.45;;;28.00;56.10;;;;;;956631;145;27320;-80
2022/08/01 07:35:09;;;;;;;1.15;1.10;;;28.00;56.10;;;;;;945892;146;27378;-80
2022/08/01 07:37:35;;;;;;;1.82;1.35;;;28.00;56.10;;;;;;941802;147;27407;-80
2022/08/01 07:40:04;;;;;;;1.27;1.17;;;28.00;56.30;;;;;;917949;150;27464;-80
2022/08/01 07:42:28;;;;;;;1.15;1.10;;;28.00;56.40;;;;;;927180;149;27429;-80
2022/08/01 07:44:55;;;;;;;1.30;1.20;;;28.10;56.60;;;;;;940538;147;27311;-81
2022/08/01 07:47:25;;;;;;;1.00;1.00;;;28.20;56.60;;;;;;942948;147;27314;-79
2022/08/01 07:49:51;;;;;;;1.37;1.30;;;28.30;56.50;;;;;;919932;150;27398;-81
2022/08/01 07:52:18;;;;;;;1.60;1.50;;;28.40;56.30;;;;;;932935;149;27369;-81
2022/08/01 07:54:44;;;;;;;1.17;1.17;;;28.60;56.20;;;;;;941994;147;27389;-80
2022/08/01 07:57:11;;;;;;;3.25;1.60;;;28.70;56.20;;;;;;942445;147;27308;-80
2022/08/01 07:59:37;;;;;;;1.50;1.40;;;28.80;56.10;;;;;;942972;147;27298;-79
2022/08/01 08:02:04;;;;;;;1.40;1.30;;;29.10;56.50;;;;;;926741;150;27439;-79
2022/08/01 08:04:31;;;;;;;1.10;1.10;;;29.50;56.80;;;;;;926064;150;27393;-79
2022/08/01 08:06:57;;;;;;;1.60;1.50;;;29.90;56.40;;;;;;942045;147;27359;-80
2022/08/01 08:09:24;;;;;;;2.50;1.32;;;30.30;55.90;;;;;;941194;147;27443;-81
2022/08/01 08:11:51;;;;;;;1.55;1.45;;;30.70;55.10;;;;;;941373;147;27335;-80
2022/08/01 08:14:17;;;;;;;4.72;1.60;;;31.00;54.40;;;;;;928319;150;27726;-79
2022/08/01 08:16:44;;;;;;;2.15;1.40;;;31.30;53.70;;;;;;946412;147;27255;-80
2022/08/01 08:19:10;;;;;;;1.67;1.50;;;31.50;53.40;;;;;;943123;147;27375;-80
2022/08/01 08:21:37;;;;;;;1.20;1.20;;;31.70;53.40;;;;;;941104;147;27425;-80
2022/08/01 08:24:20;;;;;;;1.30;1.30;;;32.10;53.40;;;;;;943407;147;27302;-80
2022/08/01 08:26:46;;;;;;;1.30;1.20;;;32.50;53.60;;;;;;917589;150;27392;-80
2022/08/01 08:29:13;;;;;;;1.50;1.40;;;33.00;53.30;;;;;;942703;147;27310;-80
2022/08/01 08:31:39;;;;;;;1.50;1.40;;;33.70;53.60;;;;;;943030;147;26327;-80
2022/08/01 08:34:06;;;;;;;1.87;1.32;;;34.40;53.30;;;;;;944090;147;26302;-80
2022/08/01 08:36:33;;;;;;;1.42;1.32;;;35.30;52.60;;;;;;956675;146;26289;-80
2022/08/01 08:39:02;;;;;;;1.55;1.47;;;36.10;51.20;;;;;;936234;149;26393;-80
2022/08/01 08:41:31;;;;;;;1.72;1.27;;;36.90;49.90;;;;;;956925;146;26309;-80
2022/08/01 08:44:00;;;;;;;1.30;1.20;;;37.50;49.00;;;;;;938827;149;26438;-80
2022/08/01 08:46:27;;;;;;;1.50;1.40;;;38.20;47.60;;;;;;937340;149;26305;-80
2022/08/01 08:48:54;;;;;;;1.35;1.27;;;38.50;46.30;;;;;;955210;145;26279;-80
2022/08/01 08:51:21;;;;;;;1.47;1.37;;;38.70;45.30;;;;;;953834;145;26272;-80
2022/08/01 08:53:48;;;;;;;1.15;1.15;;;38.70;44.40;;;;;;955510;145;26352;-80
2022/08/01 08:56:14;;;;;;;1.32;1.22;;;38.70;43.80;;;;;;953499;145;26312;-80
2022/08/01 08:58:41;;;;;;;1.25;1.20;;;38.60;43.30;;;;;;936516;149;26276;-80
2022/08/01 09:01:10;;;;;;;1.37;1.27;;;38.30;42.90;;;;;;957159;145;26227;-80
2022/08/01 09:03:34;;;;;;;1.60;1.50;;;38.10;42.70;;;;;;931040;149;27443;-80
2022/08/01 09:06:01;;;;;;;1.42;1.32;;;37.70;42.60;;;;;;955066;146;26360;-80
2022/08/01 09:08:27;;;;;;;1.50;1.40;;;37.40;42.50;;;;;;936717;149;27456;-80
2022/08/01 09:10:54;;;;;;;1.55;1.45;;;37.00;42.40;;;;;;934081;149;27403;-80
2022/08/01 09:13:20;;;;;;;1.47;1.37;;;36.60;42.40;;;;;;956288;146;27797;-80
2022/08/01 09:15:47;;;;;;;2.12;1.90;;;36.10;42.50;;;;;;954104;145;27374;-80
2022/08/01 09:18:29;;;;;;;1.42;1.40;;;35.70;42.70;;;;;;958126;145;27453;-80
2022/08/01 09:20:52;;;;;;;1.30;1.30;;;35.30;43.00;;;;;;954020;146;27886;-80
2022/08/01 09:23:34;;;;;;;1.25;1.15;;;34.80;43.50;;;;;;946335;149;27316;-80
2022/08/01 09:26:00;;;;;;;1.72;1.60;;;34.50;43.90;;;;;;953627;146;27396;-80
2022/08/01 09:28:30;;;;;;;1.98;1.72;;;34.20;44.40;;;;;;951695;148;27696;-80
2022/08/01 09:30:59;;;;;;;4.35;2.00;;;33.90;44.60;;;;;;954048;146;27364;-79
2022/08/01 09:33:26;;;;;;;2.47;1.62;;;33.70;44.90;;;;;;955376;146;27343;-79
2022/08/01 09:35:55;;;;;;;1.60;1.50;;;33.60;45.30;;;;;;931518;150;27483;-79
2022/08/01 09:38:22;;;;;;;1.95;1.85;;;33.50;45.90;;;;;;927714;149;27889;-79
2022/08/01 09:40:48;;;;;;;1.60;1.50;;;33.60;46.00;;;;;;941249;147;27401;-80
2022/08/01 09:43:15;;;;;;;1.52;1.42;;;33.80;46.70;;;;;;943151;147;26246;-79
2022/08/01 09:45:44;;;;;;;1.45;1.45;;;34.10;46.80;;;;;;917517;150;27397;-79
2022/08/01 09:48:11;;;;;;;1.42;1.32;;;34.50;46.60;;;;;;942164;147;26188;-80
2022/08/01 09:50:43;;;;;;;1.70;1.60;;;34.90;46.10;;;;;;925624;150;27402;-79
2022/08/01 09:53:10;;;;;;;1.75;1.55;;;35.20;45.40;;;;;;942355;147;27445;-80
2022/08/01 09:55:36;;;;;;;1.60;1.50;;;35.40;45.00;;;;;;942824;147;27471;-80
2022/08/01 09:58:04;;;;;;;2.72;1.80;;;35.70;45.20;;;;;;926783;149;27351;-80
2022/08/01 10:00:30;;;;;;;1.70;1.60;;;35.90;45.00;;;;;;939416;147;27469;-80
2022/08/01 10:02:56;;;;;;;1.57;1.47;;;36.20;44.10;;;;;;935638;149;26356;-80
2022/08/01 10:05:34;;;;;;;1.50;1.40;;;36.40;44.00;;;;;;944879;147;26205;-80
2022/08/01 10:08:01;;;;;;;1.70;1.60;;;36.60;43.80;;;;;;927318;149;26273;-80
2022/08/01 10:10:28;;;;;;;1.70;1.60;;;36.80;43.40;;;;;;943208;147;26206;-79
2022/08/01 10:12:54;;;;;;;1.17;1.17;;;36.90;42.90;;;;;;942980;147;26217;-80
2022/08/01 10:15:21;;;;;;;3.25;1.40;;;37.00;42.40;;;;;;943540;147;26202;-80
2022/08/01 10:17:53;;;;;;;1.25;1.25;;;37.10;42.00;;;;;;924911;150;27467;-80
2022/08/01 10:20:19;;;;;;;1.65;1.55;;;37.20;41.90;;;;;;942506;147;26274;-80
2022/08/01 10:22:46;;;;;;;1.75;1.65;;;37.20;41.50;;;;;;940764;147;27347;-80
2022/08/01 10:25:16;;;;;;;1.40;1.40;;;37.20;41.00;;;;;;941507;147;26242;-80
2022/08/01 10:27:39;;;;;;;1.32;1.32;;;37.20;40.70;;;;;;943995;147;27359;-80
2022/08/01 10:30:09;;;;;;;1.27;1.27;;;37.10;40.50;;;;;;941994;147;27350;-80
2022/08/01 10:32:33;;;;;;;1.47;1.40;;;37.10;40.30;;;;;;918875;150;27367;-79
2022/08/01 10:34:59;;;;;;;2.00;1.80;;;36.80;40.10;;;;;;941730;147;27417;-80
2022/08/01 10:37:26;;;;;;;1.65;1.55;;;36.50;39.60;;;;;;929498;149;27351;-79
2022/08/01 10:39:52;;;;;;;2.50;2.00;;;36.20;39.80;;;;;;934548;150;27427;-80
2022/08/01 10:42:19;;;;;;;1.87;1.77;;;35.90;40.10;;;;;;932478;149;27438;-79
2022/08/01 10:44:48;;;;;;;2.05;1.90;;;35.40;40.20;;;;;;943399;147;27333;-79
2022/08/01 10:47:15;;;;;;;2.22;2.02;;;35.10;40.60;;;;;;919087;150;27405;-79
2022/08/01 10:49:41;;;;;;;1.70;1.60;;;34.70;41.00;;;;;;941467;147;27373;-79
2022/08/01 10:52:08;;;;;;;1.90;1.80;;;34.40;41.60;;;;;;943531;147;27290;-79
2022/08/01 10:54:41;;;;;;;1.80;1.70;;;34.10;41.80;;;;;;916157;150;27777;-79
2022/08/01 10:57:07;;;;;;;2.08;1.98;;;33.90;42.20;;;;;;925877;149;27447;-79
2022/08/01 10:59:39;;;;;;;1.70;1.60;;;33.70;42.50;;;;;;942348;147;27232;-79
2022/08/01 11:02:00;;;;;;;2.10;1.87;;;33.60;42.60;;;;;;940537;147;27379;-79
2022/08/01 11:04:51;;;;;;;1.85;1.75;;;33.50;42.90;;;;;;941984;147;27342;-79
2022/08/01 11:07:20;;;;;;;4.08;1.70;;;33.40;43.00;;;;;;943154;147;27276;-79
2022/08/01 11:09:50;;;;;;;1.80;1.70;;;33.30;43.20;;;;;;942339;147;27366;-79
2022/08/01 11:12:17;;;;;;;1.90;1.80;;;33.20;43.20;;;;;;942702;147;27412;-79
2022/08/01 11:15:04;;;;;;;1.72;1.62;;;33.10;43.20;;;;;;942647;147;27310;-79
2022/08/01 11:17:38;;;;;;;2.10;1.77;;;33.00;43.30;;;;;;942143;147;27346;-79
2022/08/01 11:20:04;;;;;;;2.05;1.90;;;33.00;43.40;;;;;;940756;147;27295;-80
2022/08/01 11:22:31;;;;;;;2.20;2.00;;;33.00;43.50;;;;;;943611;147;27890;-80
2022/08/01 11:24:58;;;;;;;1.87;1.77;;;33.00;43.70;;;;;;942082;147;27345;-80
2022/08/01 11:27:27;;;;;;;1.87;1.77;;;33.00;43.90;;;;;;918115;150;27422;-80
2022/08/01 11:30:09;;;;;;;1.85;1.75;;;33.00;43.90;;;;;;933217;150;27354;-80
2022/08/01 11:32:48;;;;;;;1.92;1.82;;;33.00;43.90;;;;;;919599;149;27318;-80
2022/08/01 11:35:16;;;;;;;2.05;1.50;;;33.10;43.70;;;;;;943367;147;27387;-80
2022/08/01 11:37:42;;;;;;;1.85;1.75;;;33.10;43.30;;;;;;943029;147;27865;-80
2022/08/01 11:40:18;;;;;;;1.67;1.57;;;33.20;43.60;;;;;;941781;147;27264;-80
2022/08/01 11:42:45;;;;;;;1.80;1.70;;;33.20;43.40;;;;;;943296;147;27404;-80
2022/08/01 11:45:11;;;;;;;1.67;1.57;;;33.30;43.20;;;;;;920120;150;27289;-80
2022/08/01 11:47:44;;;;;;;1.85;1.47;;;33.40;43.00;;;;;;938452;148;27371;-80
2022/08/01 11:50:28;;;;;;;1.50;1.40;;;33.50;42.80;;;;;;943061;147;27295;-80
2022/08/01 11:53:04;;;;;;;1.67;1.57;;;33.50;42.80;;;;;;923981;150;27385;-80
2022/08/01 11:55:31;;;;;;;1.72;1.62;;;33.50;42.50;;;;;;928502;150;27359;-79
2022/08/01 11:58:06;;;;;;;1.57;1.52;;;33.50;42.20;;;;;;931263;149;27420;-80
2022/08/01 12:00:33;;;;;;;1.45;1.37;;;33.50;42.20;;;;;;933563;149;27327;-80
2022/08/01 12:02:59;;;;;;;1.77;1.67;;;33.50;42.30;;;;;;934948;149;27330;-80
2022/08/01 12:05:26;;;;;;;1.65;1.55;;;33.60;42.40;;;;;;937541;148;28681;-80
2022/08/01 12:07:53;;;;;;;1.40;1.30;;;33.60;42.50;;;;;;943932;147;27398;-80
2022/08/01 12:10:19;;;;;;;1.42;1.35;;;33.70;42.30;;;;;;917941;150;27348;-81
2022/08/01 12:12:46;;;;;;;1.32;1.32;;;33.70;42.00;;;;;;942607;147;27425;-80
2022/08/01 12:15:12;;;;;;;1.20;1.20;;;33.70;41.50;;;;;;940250;147;27425;-80
2022/08/01 12:17:39;;;;;;;1.60;1.50;;;33.80;41.30;;;;;;918302;150;27478;-80
2022/08/01 12:20:09;;;;;;;1.60;1.50;;;33.80;41.40;;;;;;944402;147;27459;-80
2022/08/01 12:22:35;;;;;;;1.80;1.67;;;33.90;41.30;;;;;;941510;147;27406;-80
2022/08/01 12:25:07;;;;;;;1.60;1.50;;;33.90;41.30;;;;;;928881;150;27294;-80
2022/08/01 12:27:34;;;;;;;1.65;1.55;;;33.90;41.20;;;;;;942189;147;27354;-80
2022/08/01 12:30:01;;;;;;;1.37;1.37;;;34.00;41.20;;;;;;945397;147;27421;-80
2022/08/01 12:32:35;;;;;;;1.20;1.20;;;34.10;41.20;;;;;;941589;147;27303;-80
2022/08/01 12:35:14;;;;;;;1.45;1.35;;;34.10;41.20;;;;;;919820;150;27478;-80
2022/08/01 12:37:41;;;;;;;1.30;1.27;;;34.10;41.00;;;;;;951331;145;27493;-79
2022/08/01 12:40:22;;;;;;;1.25;1.25;;;34.20;40.80;;;;;;953317;146;27360;-80
2022/08/01 12:42:49;;;;;;;1.52;1.42;;;34.30;41.50;;;;;;957494;146;27405;-79
2022/08/01 12:45:16;;;;;;;1.67;1.57;;;34.30;40.80;;;;;;953756;145;27299;-80
2022/08/01 12:47:42;;;;;;;1.37;1.37;;;34.40;40.50;;;;;;955877;145;27289;-79
2022/08/01 12:50:09;;;;;;;1.40;1.40;;;34.40;40.50;;;;;;957513;145;27412;-80